Terminal Aerodrome Forecast
Issued by NWS

Home | Current Version | Previous Version | Text Only | Print | Product List | Glossary On
Versions: 1 2 3 4 5 6 7 8 9 10 11 12 13 14 15 16 17 18 19 20 21 22 23 24 25 26 27 28 29 30
000
FTUS41 KBUF 271100
TAFIAG
TAF
KIAG 271132Z 2712/2812 VRB03KT 6SM -SN OVC040
     FM271500 29006KT P6SM VCSH OVC035
     FM272000 27008KT P6SM OVC025
     FM272300 28006KT 6SM -SN SCT015 OVC025
     FM280600 29012KT P6SM OVC025
     FM281000 28010KT P6SM BKN250=

USA.gov is the U.S. government's official web portal to all federal, state and local government web resources and services.